createdAt,value
2018-03-22T00:00:06.177Z,989.13
2018-03-22T00:01:06.067Z,989.14
2018-03-22T00:02:05.949Z,989.13
2018-03-22T00:03:05.868Z,989.12
2018-03-22T00:04:06.251Z,989.09
2018-03-22T00:05:05.666Z,989.08
2018-03-22T00:06:05.599Z,989.03
2018-03-22T00:07:06.253Z,989.03
2018-03-22T00:08:05.347Z,989.02
2018-03-22T00:09:05.264Z,989.00
2018-03-22T00:10:05.197Z,988.95
2018-03-22T00:11:05.047Z,988.97
2018-03-22T00:12:04.930Z,988.95
2018-03-22T00:13:04.855Z,988.96
2018-03-22T00:14:04.748Z,989.00
2018-03-22T00:15:04.622Z,988.97
2018-03-22T00:16:04.623Z,988.94
2018-03-22T00:17:04.439Z,988.93
2018-03-22T00:18:04.338Z,988.96
2018-03-22T00:19:04.229Z,988.94
2018-03-22T00:20:04.101Z,988.95
2018-03-22T00:21:04.032Z,988.94
2018-03-22T00:22:03.948Z,988.93
2018-03-22T00:23:03.823Z,988.87
2018-03-22T00:24:03.739Z,988.90
2018-03-22T00:25:03.591Z,988.89
2018-03-22T00:26:03.527Z,988.86
2018-03-22T00:27:03.410Z,988.91
2018-03-22T00:28:03.371Z,988.85
2018-03-22T00:29:03.185Z,988.90
2018-03-22T00:30:03.089Z,988.91
2018-03-22T00:31:03.005Z,988.91
2018-03-22T00:32:02.907Z,988.86
2018-03-22T00:33:02.826Z,988.86
2018-03-22T00:34:02.772Z,988.88
2018-03-22T00:35:02.612Z,988.87
2018-03-22T00:36:02.478Z,988.85
2018-03-22T00:37:02.384Z,988.91
2018-03-22T00:38:02.307Z,988.89
2018-03-22T00:39:02.184Z,988.88
2018-03-22T00:40:02.178Z,988.89
2018-03-22T00:41:02.027Z,988.86
2018-03-22T00:42:01.900Z,988.86
2018-03-22T00:43:01.804Z,988.88
2018-03-22T00:44:01.711Z,988.83
2018-03-22T00:45:01.603Z,988.80
2018-03-22T00:46:01.526Z,988.80
2018-03-22T00:47:01.382Z,988.80
2018-03-22T00:48:01.766Z,988.76
2018-03-22T00:49:01.192Z,988.75
2018-03-22T00:50:01.039Z,988.72
2018-03-22T00:51:00.989Z,988.67
2018-03-22T00:52:00.949Z,988.71
2018-03-22T00:53:00.783Z,988.65
2018-03-22T00:54:00.704Z,988.67
2018-03-22T00:55:00.588Z,988.64
2018-03-22T00:56:00.475Z,988.65
2018-03-22T00:57:00.391Z,988.65
2018-03-22T00:58:00.754Z,988.59
2018-03-22T00:59:00.178Z,988.57
2018-03-22T01:00:00.044Z,988.58
2018-03-22T01:00:59.990Z,988.58
2018-03-22T01:01:59.837Z,988.54
2018-03-22T01:02:59.767Z,988.52
2018-03-22T01:03:59.693Z,988.52
2018-03-22T01:04:59.537Z,988.49
2018-03-22T01:05:59.422Z,988.50
2018-03-22T01:06:59.381Z,988.49
2018-03-22T01:07:59.228Z,988.48
2018-03-22T01:08:59.139Z,988.47
2018-03-22T01:09:59.117Z,988.43
2018-03-22T01:10:58.923Z,988.35
2018-03-22T01:11:58.864Z,988.37
2018-03-22T01:12:58.754Z,988.37
2018-03-22T01:13:58.632Z,988.39
2018-03-22T01:14:58.547Z,988.35
2018-03-22T01:15:58.488Z,988.35
2018-03-22T01:16:58.346Z,988.39
2018-03-22T01:17:58.242Z,988.38
2018-03-22T01:18:58.146Z,988.38
2018-03-22T01:19:58.753Z,988.38
2018-03-22T01:20:57.927Z,988.40
2018-03-22T01:21:57.869Z,988.40
2018-03-22T01:22:57.686Z,988.39
2018-03-22T01:23:57.633Z,988.37
2018-03-22T01:24:57.536Z,988.38
2018-03-22T01:25:57.445Z,988.37
2018-03-22T01:26:57.324Z,988.35
2018-03-22T01:27:57.522Z,988.28
2018-03-22T01:28:57.103Z,988.29
2018-03-22T01:29:57.038Z,988.30
2018-03-22T01:30:56.924Z,988.27
2018-03-22T01:31:56.824Z,988.25
2018-03-22T01:32:56.715Z,988.22
2018-03-22T01:33:56.646Z,988.21
2018-03-22T01:34:57.256Z,988.22
2018-03-22T01:35:56.424Z,988.20
2018-03-22T01:36:56.282Z,988.16
2018-03-22T01:37:56.209Z,988.13
2018-03-22T01:38:56.110Z,988.13
2018-03-22T01:39:56.063Z,988.10
2018-03-22T01:40:55.958Z,988.06
2018-03-22T01:41:55.812Z,988.09
2018-03-22T01:42:55.733Z,988.07
2018-03-22T01:43:55.637Z,988.05
2018-03-22T01:44:55.430Z,988.03
2018-03-22T01:45:55.464Z,988.01
2018-03-22T01:46:55.290Z,988.01
2018-03-22T01:47:55.206Z,987.98
2018-03-22T01:48:55.096Z,987.98
2018-03-22T01:49:55.027Z,987.95
2018-03-22T01:50:54.899Z,987.94
2018-03-22T01:51:54.845Z,987.90
2018-03-22T01:52:54.694Z,987.91
2018-03-22T01:53:54.605Z,987.85
2018-03-22T01:54:54.489Z,987.84
2018-03-22T01:55:55.256Z,987.81
2018-03-22T01:56:54.252Z,987.77
2018-03-22T01:57:54.221Z,987.77
2018-03-22T01:58:54.093Z,987.74
2018-03-22T01:59:53.972Z,987.77
2018-03-22T02:00:53.888Z,987.71
2018-03-22T02:01:53.788Z,987.70
2018-03-22T02:02:53.663Z,987.68
2018-03-22T02:03:54.255Z,987.66
2018-03-22T02:04:53.470Z,987.64
2018-03-22T02:05:53.390Z,987.59
2018-03-22T02:06:53.273Z,987.61
2018-03-22T02:07:53.199Z,987.54
2018-03-22T02:08:53.756Z,987.54
2018-03-22T02:09:52.975Z,987.53
2018-03-22T02:10:52.845Z,987.48
2018-03-22T02:11:52.770Z,987.46
2018-03-22T02:12:53.438Z,987.46
2018-03-22T02:13:52.598Z,987.46
2018-03-22T02:14:52.440Z,987.46
2018-03-22T02:15:53.256Z,987.41
2018-03-22T02:16:52.279Z,987.38
2018-03-22T02:17:52.164Z,987.38
2018-03-22T02:18:52.759Z,987.40
2018-03-22T02:19:51.950Z,987.32
2018-03-22T02:20:52.762Z,987.29
2018-03-22T02:21:52.756Z,987.26
2018-03-22T02:23:01.255Z,987.23
2018-03-22T02:23:51.564Z,987.22
2018-03-22T02:24:51.466Z,987.22
2018-03-22T02:25:51.410Z,987.22
2018-03-22T02:26:51.250Z,987.22
2018-03-22T02:27:51.221Z,987.17
2018-03-22T02:28:51.061Z,987.20
2018-03-22T02:29:50.953Z,987.18
2018-03-22T02:30:50.905Z,987.17
2018-03-22T02:31:50.752Z,987.18
2018-03-22T02:32:50.621Z,987.14
2018-03-22T02:33:50.607Z,987.14
2018-03-22T02:34:51.257Z,987.17
2018-03-22T02:35:50.363Z,987.19
2018-03-22T02:36:50.232Z,987.15
2018-03-22T02:37:50.116Z,987.14
2018-03-22T02:38:50.059Z,987.15
2018-03-22T02:39:50.760Z,987.12
2018-03-22T02:40:49.829Z,987.08
2018-03-22T02:41:49.741Z,987.09
2018-03-22T02:42:49.665Z,987.09
2018-03-22T02:43:49.574Z,987.07
2018-03-22T02:44:49.421Z,987.09
2018-03-22T02:45:49.361Z,987.03
2018-03-22T02:46:49.215Z,987.01
2018-03-22T02:47:49.107Z,987.03
2018-03-22T02:48:49.019Z,986.96
2018-03-22T02:49:48.888Z,986.96
2018-03-22T02:50:48.794Z,986.99
2018-03-22T02:51:48.743Z,986.93
2018-03-22T02:52:48.639Z,986.89
2018-03-22T02:53:48.537Z,986.91
2018-03-22T02:54:48.454Z,986.88
2018-03-22T02:55:48.305Z,986.87
2018-03-22T02:56:48.208Z,986.84
2018-03-22T02:57:48.191Z,986.84
2018-03-22T02:58:48.043Z,986.85
2018-03-22T02:59:47.889Z,986.82
2018-03-22T03:00:47.835Z,986.84
2018-03-22T03:01:47.722Z,986.83
2018-03-22T03:02:47.652Z,986.82
2018-03-22T03:03:47.586Z,986.79
2018-03-22T03:04:47.417Z,986.76
2018-03-22T03:05:47.350Z,986.75
2018-03-22T03:06:47.222Z,986.69
2018-03-22T03:07:47.152Z,986.70
2018-03-22T03:08:47.007Z,986.68
2018-03-22T03:09:46.982Z,986.67
2018-03-22T03:10:46.823Z,986.63
2018-03-22T03:11:47.260Z,986.64
2018-03-22T03:12:46.634Z,986.64
2018-03-22T03:13:46.535Z,986.60
2018-03-22T03:14:46.444Z,986.54
2018-03-22T03:15:46.366Z,986.54
2018-03-22T03:16:46.229Z,986.51
2018-03-22T03:17:46.132Z,986.51
2018-03-22T03:18:46.014Z,986.47
2018-03-22T03:19:45.934Z,986.49
2018-03-22T03:20:45.827Z,986.44
2018-03-22T03:21:45.766Z,986.43
2018-03-22T03:22:45.600Z,986.39
2018-03-22T03:23:45.562Z,986.34
2018-03-22T03:24:45.433Z,986.34
2018-03-22T03:25:45.336Z,986.30
2018-03-22T03:26:45.213Z,986.29
2018-03-22T03:27:45.154Z,986.24
2018-03-22T03:28:45.021Z,986.23
2018-03-22T03:29:44.921Z,986.21
2018-03-22T03:30:44.789Z,986.18
2018-03-22T03:31:44.693Z,986.13
2018-03-22T03:32:44.577Z,986.18
2018-03-22T03:33:44.560Z,986.14
2018-03-22T03:34:44.416Z,986.12
2018-03-22T03:35:44.306Z,986.11
2018-03-22T03:36:44.237Z,986.12
2018-03-22T03:37:44.141Z,986.12
2018-03-22T03:38:44.024Z,986.06
2018-03-22T03:39:43.934Z,986.13
2018-03-22T03:40:43.798Z,986.09
2018-03-22T03:41:43.747Z,986.10
2018-03-22T03:42:43.614Z,986.07
2018-03-22T03:43:43.514Z,986.07
2018-03-22T03:44:43.430Z,986.02
2018-03-22T03:45:43.324Z,985.99
2018-03-22T03:46:43.232Z,985.95
2018-03-22T03:47:43.117Z,985.94
2018-03-22T03:48:43.002Z,985.91
2018-03-22T03:49:42.950Z,985.90
2018-03-22T03:50:42.795Z,985.89
2018-03-22T03:51:42.792Z,985.92
2018-03-22T03:52:42.611Z,985.85
2018-03-22T03:53:42.531Z,985.89
2018-03-22T03:54:42.414Z,985.88
2018-03-22T03:55:42.308Z,985.89
2018-03-22T03:56:42.200Z,985.89
2018-03-22T03:57:42.147Z,985.94
2018-03-22T03:58:41.999Z,985.94
2018-03-22T03:59:41.902Z,985.95
2018-03-22T04:00:41.787Z,985.92
2018-03-22T04:01:41.660Z,985.88
2018-03-22T04:02:41.611Z,985.88
2018-03-22T04:03:41.556Z,985.87
2018-03-22T04:04:41.410Z,985.84
2018-03-22T04:05:41.326Z,985.81
2018-03-22T04:06:41.208Z,985.79
2018-03-22T04:07:41.074Z,985.81
2018-03-22T04:08:41.031Z,985.82
2018-03-22T04:09:40.937Z,985.78
2018-03-22T04:10:40.813Z,985.81
2018-03-22T04:11:40.722Z,985.79
2018-03-22T04:12:40.622Z,985.76
2018-03-22T04:13:40.535Z,985.83
2018-03-22T04:14:40.399Z,985.83
2018-03-22T04:15:40.763Z,985.77
2018-03-22T04:16:40.200Z,985.77
2018-03-22T04:17:40.115Z,985.74
2018-03-22T04:18:39.969Z,985.77
2018-03-22T04:19:39.947Z,985.75
2018-03-22T04:20:39.802Z,985.71
2018-03-22T04:21:39.756Z,985.71
2018-03-22T04:22:39.599Z,985.69
2018-03-22T04:23:39.520Z,985.68
2018-03-22T04:24:39.406Z,985.70
2018-03-22T04:25:39.293Z,985.64
2018-03-22T04:26:39.193Z,985.63
2018-03-22T04:27:39.172Z,985.58
2018-03-22T04:28:39.003Z,985.58
2018-03-22T04:29:38.915Z,985.58
2018-03-22T04:30:38.794Z,985.55
2018-03-22T04:31:38.682Z,985.50
2018-03-22T04:32:38.601Z,985.47
2018-03-22T04:33:38.491Z,985.43
2018-03-22T04:34:38.417Z,985.33
2018-03-22T04:35:38.254Z,985.31
2018-03-22T04:36:39.764Z,985.36
2018-03-22T04:37:38.104Z,985.36
2018-03-22T04:38:37.986Z,985.35
2018-03-22T04:39:38.026Z,985.35
2018-03-22T04:40:37.803Z,985.32
2018-03-22T04:41:37.680Z,985.32
2018-03-22T04:42:37.596Z,985.30
2018-03-22T04:43:37.488Z,985.27
2018-03-22T04:44:37.353Z,985.26
2018-03-22T04:45:37.324Z,985.24
2018-03-22T04:46:37.167Z,985.28
2018-03-22T04:47:37.054Z,985.23
2018-03-22T04:48:36.932Z,985.24
2018-03-22T04:49:36.864Z,985.20
2018-03-22T04:50:36.777Z,985.25
2018-03-22T04:51:36.737Z,985.24
2018-03-22T04:52:36.575Z,985.27
2018-03-22T04:53:36.429Z,985.28
2018-03-22T04:54:36.400Z,985.23
2018-03-22T04:55:36.287Z,985.27
2018-03-22T04:56:36.161Z,985.23
2018-03-22T04:57:36.097Z,985.23
2018-03-22T04:58:35.939Z,985.20
2018-03-22T04:59:35.877Z,985.21
2018-03-22T05:00:35.768Z,985.20
2018-03-22T05:01:35.689Z,985.19
2018-03-22T05:02:35.571Z,985.13
2018-03-22T05:03:35.763Z,985.10
2018-03-22T05:04:35.361Z,985.09
2018-03-22T05:05:35.309Z,985.07
2018-03-22T05:06:35.195Z,985.10
2018-03-22T05:07:35.098Z,985.10
2018-03-22T05:08:34.982Z,985.10
2018-03-22T05:09:34.922Z,985.08
2018-03-22T05:10:34.784Z,985.09
2018-03-22T05:11:34.690Z,985.06
2018-03-22T05:12:34.580Z,985.02
2018-03-22T05:13:34.466Z,985.07
2018-03-22T05:14:34.382Z,985.02
2018-03-22T05:15:34.329Z,985.03
2018-03-22T05:16:34.178Z,984.99
2018-03-22T05:17:34.097Z,984.95
2018-03-22T05:18:33.974Z,984.96
2018-03-22T05:19:33.895Z,984.92
2018-03-22T05:20:33.742Z,984.95
2018-03-22T05:21:33.709Z,984.91
2018-03-22T05:22:33.595Z,984.96
2018-03-22T05:23:33.458Z,984.95
2018-03-22T05:24:33.415Z,984.93
2018-03-22T05:25:33.952Z,984.91
2018-03-22T05:26:33.141Z,984.96
2018-03-22T05:27:33.102Z,984.87
2018-03-22T05:28:32.973Z,984.89
2018-03-22T05:29:32.875Z,984.84
2018-03-22T05:30:32.771Z,984.82
2018-03-22T05:31:32.654Z,984.83
2018-03-22T05:32:32.582Z,984.84
2018-03-22T05:33:32.515Z,984.83
2018-03-22T05:34:32.381Z,984.80
2018-03-22T05:35:32.247Z,984.80
2018-03-22T05:36:32.157Z,984.77
2018-03-22T05:37:32.084Z,984.77
2018-03-22T05:38:31.955Z,984.78
2018-03-22T05:39:31.947Z,984.73
2018-03-22T05:40:31.814Z,984.71
2018-03-22T05:41:31.669Z,984.71
2018-03-22T05:42:31.620Z,984.64
2018-03-22T05:43:31.474Z,984.68
2018-03-22T05:44:31.361Z,984.67
2018-03-22T05:45:31.338Z,984.68
2018-03-22T05:46:31.199Z,984.67
2018-03-22T05:47:31.070Z,984.68
2018-03-22T05:48:30.979Z,984.61
2018-03-22T05:49:30.853Z,984.67
2018-03-22T05:50:30.749Z,984.62
2018-03-22T05:51:30.756Z,984.60
2018-03-22T05:52:30.582Z,984.62
2018-03-22T05:53:30.476Z,984.63
2018-03-22T05:54:30.376Z,984.60
2018-03-22T05:55:30.278Z,984.60
2018-03-22T05:56:30.221Z,984.53
2018-03-22T05:57:30.215Z,984.53
2018-03-22T05:58:29.986Z,984.50
2018-03-22T05:59:29.893Z,984.54
2018-03-22T06:00:29.790Z,984.50
2018-03-22T06:01:29.713Z,984.53
2018-03-22T06:02:29.558Z,984.53
2018-03-22T06:03:29.564Z,984.55
2018-03-22T06:04:29.378Z,984.51
2018-03-22T06:05:29.272Z,984.48
2018-03-22T06:06:29.183Z,984.49
2018-03-22T06:07:29.772Z,984.47
2018-03-22T06:08:29.005Z,984.48
2018-03-22T06:09:28.970Z,984.44
2018-03-22T06:10:28.764Z,984.45
2018-03-22T06:11:28.697Z,984.48
2018-03-22T06:12:28.646Z,984.43
2018-03-22T06:13:28.472Z,984.46
2018-03-22T06:14:28.400Z,984.46
2018-03-22T06:15:28.350Z,984.48
2018-03-22T06:16:28.194Z,984.47
2018-03-22T06:17:28.109Z,984.47
2018-03-22T06:18:27.981Z,984.43
2018-03-22T06:19:27.901Z,984.46
2018-03-22T06:20:27.807Z,984.40
2018-03-22T06:21:27.756Z,984.39
2018-03-22T06:22:27.617Z,984.36
2018-03-22T06:23:27.492Z,984.38
2018-03-22T06:24:27.408Z,984.33
2018-03-22T06:25:27.319Z,984.29
2018-03-22T06:26:27.234Z,984.34
2018-03-22T06:27:27.164Z,984.36
2018-03-22T06:28:27.008Z,984.33
2018-03-22T06:29:26.925Z,984.34
2018-03-22T06:30:26.828Z,984.36
2018-03-22T06:31:26.743Z,984.44
2018-03-22T06:32:26.628Z,984.42
2018-03-22T06:33:26.568Z,984.41
2018-03-22T06:34:26.421Z,984.34
2018-03-22T06:35:26.321Z,984.32
2018-03-22T06:36:26.231Z,984.20
2018-03-22T06:37:26.128Z,984.10
2018-03-22T06:38:26.031Z,984.07
2018-03-22T06:39:25.978Z,984.05
2018-03-22T06:40:25.858Z,984.02
2018-03-22T06:41:25.746Z,984.04
2018-03-22T06:42:25.617Z,984.04
2018-03-22T06:43:25.557Z,984.04
2018-03-22T06:44:25.411Z,984.05
2018-03-22T06:45:25.392Z,984.06
2018-03-22T06:46:25.236Z,984.00
2018-03-22T06:47:25.154Z,984.02
2018-03-22T06:48:25.059Z,983.99
2018-03-22T06:49:24.981Z,983.94
2018-03-22T06:50:24.859Z,983.96
2018-03-22T06:51:24.834Z,983.94
2018-03-22T06:52:24.655Z,983.97
2018-03-22T06:53:24.555Z,984.00
2018-03-22T06:54:24.465Z,983.97
2018-03-22T06:55:24.362Z,984.02
2018-03-22T06:56:24.274Z,983.99
2018-03-22T06:57:24.225Z,983.99
2018-03-22T06:58:24.062Z,983.99
2018-03-22T06:59:23.939Z,983.96
2018-03-22T07:00:23.860Z,984.02
2018-03-22T07:01:23.770Z,984.04
2018-03-22T07:02:23.655Z,984.06
2018-03-22T07:03:23.621Z,984.03
2018-03-22T07:04:23.476Z,984.07
2018-03-22T07:05:23.354Z,984.08
2018-03-22T07:06:23.294Z,984.07
2018-03-22T07:07:23.185Z,984.07
2018-03-22T07:08:23.048Z,984.07
2018-03-22T07:09:23.083Z,984.08
2018-03-22T07:10:22.885Z,984.07
2018-03-22T07:11:22.790Z,984.05
2018-03-22T07:12:22.707Z,984.03
2018-03-22T07:13:22.596Z,984.00
2018-03-22T07:14:22.511Z,983.97
2018-03-22T07:15:22.446Z,983.95
2018-03-22T07:16:22.316Z,983.94
2018-03-22T07:17:22.205Z,983.96
2018-03-22T07:18:22.099Z,983.91
2018-03-22T07:19:21.994Z,983.91
2018-03-22T07:20:21.930Z,983.81
2018-03-22T07:21:21.856Z,983.79
2018-03-22T07:22:21.703Z,983.74
2018-03-22T07:23:21.641Z,983.76
2018-03-22T07:24:21.538Z,983.70
2018-03-22T07:25:21.452Z,983.72
2018-03-22T07:26:21.354Z,983.64
2018-03-22T07:27:21.309Z,983.66
2018-03-22T07:28:21.120Z,983.66
2018-03-22T07:29:21.078Z,983.63
2018-03-22T07:30:20.953Z,983.67
2018-03-22T07:31:20.855Z,983.68
2018-03-22T07:32:20.748Z,983.69
2018-03-22T07:33:20.672Z,983.63
2018-03-22T07:34:20.563Z,983.67
2018-03-22T07:35:20.476Z,983.67
2018-03-22T07:36:20.356Z,983.65
2018-03-22T07:37:20.274Z,983.64
2018-03-22T07:38:20.192Z,983.57
2018-03-22T07:39:20.128Z,983.53
2018-03-22T07:40:19.992Z,983.51
2018-03-22T07:41:19.884Z,983.53
2018-03-22T07:42:19.796Z,983.57
2018-03-22T07:43:19.705Z,983.55
2018-03-22T07:44:19.600Z,983.57
2018-03-22T07:45:19.592Z,983.55
2018-03-22T07:46:19.420Z,983.53
2018-03-22T07:47:19.377Z,983.52
2018-03-22T07:48:19.285Z,983.44
2018-03-22T07:49:19.132Z,983.40
2018-03-22T07:50:19.017Z,983.35
2018-03-22T07:51:18.956Z,983.25
2018-03-22T07:52:18.832Z,983.26
2018-03-22T07:53:18.751Z,983.16
2018-03-22T07:54:18.662Z,983.18
2018-03-22T07:55:18.550Z,983.17
2018-03-22T07:56:18.441Z,983.14
2018-03-22T07:57:18.409Z,983.21
2018-03-22T07:58:18.286Z,983.22
2018-03-22T07:59:18.193Z,983.15
2018-03-22T08:00:18.074Z,983.20
2018-03-22T08:01:17.992Z,983.10
2018-03-22T08:02:17.874Z,983.15
2018-03-22T08:03:17.856Z,983.10
2018-03-22T08:04:17.683Z,983.11
2018-03-22T08:05:17.579Z,983.10
2018-03-22T08:06:17.518Z,983.08
2018-03-22T08:07:17.419Z,983.15
2018-03-22T08:08:17.318Z,983.07
2018-03-22T08:09:17.266Z,983.14
2018-03-22T08:10:17.125Z,983.11
2018-03-22T08:11:17.024Z,983.03
2018-03-22T08:12:16.934Z,983.10
2018-03-22T08:13:16.812Z,983.13
2018-03-22T08:14:16.743Z,983.07
2018-03-22T08:15:16.673Z,983.09
2018-03-22T08:16:16.536Z,983.18
2018-03-22T08:17:16.446Z,983.06
2018-03-22T08:18:16.367Z,983.12
2018-03-22T08:19:16.264Z,983.09
2018-03-22T08:20:16.187Z,983.10
2018-03-22T08:21:16.117Z,983.03
2018-03-22T08:22:15.996Z,983.07
2018-03-22T08:23:15.885Z,982.97
2018-03-22T08:24:15.795Z,983.00
2018-03-22T08:25:15.699Z,982.87
2018-03-22T08:26:15.637Z,982.87
2018-03-22T08:27:15.534Z,982.92
2018-03-22T08:28:15.412Z,982.91
2018-03-22T08:29:15.321Z,982.86
2018-03-22T08:30:15.221Z,982.89
2018-03-22T08:31:15.108Z,982.81
2018-03-22T08:32:15.029Z,982.85
2018-03-22T08:33:14.949Z,982.81
2018-03-22T08:34:14.848Z,982.80
2018-03-22T08:35:14.741Z,982.82
2018-03-22T08:36:14.658Z,982.77
2018-03-22T08:37:14.547Z,982.71
2018-03-22T08:38:14.451Z,982.68
2018-03-22T08:39:14.420Z,982.69
2018-03-22T08:40:14.270Z,982.70
2018-03-22T08:41:14.233Z,982.62
2018-03-22T08:42:14.090Z,982.59
2018-03-22T08:43:14.000Z,982.60
2018-03-22T08:44:13.870Z,982.53
2018-03-22T08:45:13.852Z,982.51
2018-03-22T08:46:13.672Z,982.54
2018-03-22T08:47:13.614Z,982.45
2018-03-22T08:48:13.482Z,982.51
2018-03-22T08:49:13.394Z,982.49
2018-03-22T08:50:13.305Z,982.48
2018-03-22T08:51:13.280Z,982.50
2018-03-22T08:52:13.123Z,982.48
2018-03-22T08:53:13.030Z,982.39
2018-03-22T08:54:12.933Z,982.49
2018-03-22T08:55:12.832Z,982.40
2018-03-22T08:56:12.733Z,982.50
2018-03-22T08:57:12.671Z,982.44
2018-03-22T08:58:12.536Z,982.42
2018-03-22T08:59:12.456Z,982.39
2018-03-22T09:00:12.360Z,982.45
2018-03-22T09:01:12.253Z,982.38
2018-03-22T09:02:12.168Z,982.35
2018-03-22T09:03:12.131Z,982.34
2018-03-22T09:04:11.972Z,982.33
2018-03-22T09:05:11.882Z,982.31
2018-03-22T09:06:11.782Z,982.28
2018-03-22T09:07:11.662Z,982.26
2018-03-22T09:08:11.586Z,982.18
2018-03-22T09:09:11.528Z,982.19
2018-03-22T09:10:11.381Z,982.07
2018-03-22T09:11:11.284Z,982.12
2018-03-22T09:12:11.193Z,982.06
2018-03-22T09:13:11.105Z,982.15
2018-03-22T09:14:11.082Z,982.09
2018-03-22T09:15:10.949Z,982.09
2018-03-22T09:16:10.816Z,982.10
2018-03-22T09:17:10.733Z,982.11
2018-03-22T09:18:10.631Z,982.04
2018-03-22T09:19:10.534Z,982.13
2018-03-22T09:20:10.444Z,982.04
2018-03-22T09:21:10.384Z,981.99
2018-03-22T09:22:10.241Z,981.97
2018-03-22T09:23:10.157Z,981.98
2018-03-22T09:24:10.039Z,981.92
2018-03-22T09:25:09.959Z,981.93
2018-03-22T09:26:09.871Z,981.87
2018-03-22T09:27:09.783Z,981.85
2018-03-22T09:28:09.675Z,981.94
2018-03-22T09:29:09.570Z,981.86
2018-03-22T09:30:09.482Z,981.89
2018-03-22T09:31:09.401Z,981.80
2018-03-22T09:32:09.280Z,981.79
2018-03-22T09:33:09.252Z,981.84
2018-03-22T09:34:09.092Z,981.84
2018-03-22T09:35:09.001Z,981.80
2018-03-22T09:36:08.911Z,981.82
2018-03-22T09:37:08.808Z,981.73
2018-03-22T09:38:08.748Z,981.74
2018-03-22T09:39:08.644Z,981.76
2018-03-22T09:40:08.532Z,981.71
2018-03-22T09:41:08.433Z,981.77
2018-03-22T09:42:08.336Z,981.79
2018-03-22T09:43:08.255Z,981.79
2018-03-22T09:44:08.160Z,981.75
2018-03-22T09:45:08.055Z,981.79
2018-03-22T09:46:07.942Z,981.76
2018-03-22T09:47:07.866Z,981.79
2018-03-22T09:48:07.757Z,981.75
2018-03-22T09:49:07.657Z,981.78
2018-03-22T09:50:07.558Z,981.82
2018-03-22T09:51:07.560Z,981.76
2018-03-22T09:52:07.381Z,981.74
2018-03-22T09:53:07.296Z,981.65
2018-03-22T09:54:07.190Z,981.62
2018-03-22T09:55:07.092Z,981.62
2018-03-22T09:56:07.011Z,981.62
2018-03-22T09:57:06.941Z,981.63
2018-03-22T09:58:06.815Z,981.57
2018-03-22T09:59:06.726Z,981.59
2018-03-22T10:00:06.625Z,981.53
2018-03-22T10:01:06.527Z,981.53
2018-03-22T10:02:06.429Z,981.48
2018-03-22T10:03:06.415Z,981.51
2018-03-22T10:04:06.256Z,981.48
2018-03-22T10:05:06.145Z,981.44
2018-03-22T10:06:06.056Z,981.45
2018-03-22T10:07:05.965Z,981.40
2018-03-22T10:08:05.898Z,981.40
2018-03-22T10:09:05.831Z,981.33
2018-03-22T10:10:05.701Z,981.39
2018-03-22T10:11:05.598Z,981.34
2018-03-22T10:12:05.497Z,981.37
2018-03-22T10:13:05.408Z,981.38
2018-03-22T10:14:05.312Z,981.29
2018-03-22T10:15:05.248Z,981.20
2018-03-22T10:16:05.130Z,981.20
2018-03-22T10:17:05.026Z,981.14
2018-03-22T10:18:04.928Z,981.20
2018-03-22T10:19:04.835Z,981.21
2018-03-22T10:20:04.749Z,981.21
2018-03-22T10:21:04.688Z,981.16
2018-03-22T10:22:04.572Z,981.18
2018-03-22T10:23:04.481Z,981.26
2018-03-22T10:24:04.398Z,981.22
2018-03-22T10:25:04.287Z,981.19
2018-03-22T10:26:04.169Z,981.18
2018-03-22T10:27:04.117Z,981.20
2018-03-22T10:28:03.984Z,981.13
2018-03-22T10:29:03.880Z,981.18
2018-03-22T10:30:03.825Z,981.22
2018-03-22T10:31:03.725Z,981.23
2018-03-22T10:32:03.639Z,981.15
2018-03-22T10:33:03.572Z,981.11
2018-03-22T10:34:03.458Z,981.14
2018-03-22T10:35:03.325Z,981.11
2018-03-22T10:36:03.275Z,981.02
2018-03-22T10:37:03.160Z,981.10
2018-03-22T10:38:03.082Z,981.01
2018-03-22T10:39:03.002Z,980.90
2018-03-22T10:40:02.892Z,980.95
2018-03-22T10:41:02.788Z,980.91
2018-03-22T10:42:02.742Z,980.89
2018-03-22T10:43:02.614Z,980.92
2018-03-22T10:44:02.519Z,980.90
2018-03-22T10:45:02.484Z,980.83
2018-03-22T10:46:02.336Z,980.90
2018-03-22T10:47:02.206Z,980.84
2018-03-22T10:48:02.138Z,980.80
2018-03-22T10:49:02.070Z,980.82
2018-03-22T10:50:01.999Z,980.76
2018-03-22T10:51:01.917Z,980.78
2018-03-22T10:52:01.783Z,980.74
2018-03-22T10:53:01.693Z,980.64
2018-03-22T10:54:01.609Z,980.69
2018-03-22T10:55:01.501Z,980.65
2018-03-22T10:56:01.423Z,980.63
2018-03-22T10:57:01.386Z,980.64
2018-03-22T10:58:01.228Z,980.60
2018-03-22T10:59:01.134Z,980.59
2018-03-22T11:00:01.052Z,980.63
2018-03-22T11:01:00.983Z,980.52
2018-03-22T11:02:00.841Z,980.60
2018-03-22T11:03:00.829Z,980.57
2018-03-22T11:04:00.675Z,980.54
2018-03-22T11:05:00.582Z,980.54
2018-03-22T11:06:00.519Z,980.54
2018-03-22T11:07:00.385Z,980.49
2018-03-22T11:08:00.304Z,980.47
2018-03-22T11:09:00.232Z,980.52
2018-03-22T11:10:00.128Z,980.60
2018-03-22T11:11:00.026Z,980.56
2018-03-22T11:11:59.923Z,980.54
2018-03-22T11:12:59.857Z,980.51
2018-03-22T11:13:59.752Z,980.57
2018-03-22T11:14:59.718Z,980.52
2018-03-22T11:15:59.550Z,980.53
2018-03-22T11:16:59.449Z,980.57
2018-03-22T11:17:59.369Z,980.54
2018-03-22T11:18:59.276Z,980.49
2018-03-22T11:19:59.211Z,980.51
2018-03-22T11:20:59.158Z,980.52
2018-03-22T11:21:59.014Z,980.52
2018-03-22T11:22:58.907Z,980.50
2018-03-22T11:23:58.788Z,980.53
2018-03-22T11:24:58.709Z,980.52
2018-03-22T11:25:58.600Z,980.50
2018-03-22T11:26:58.548Z,980.51
2018-03-22T11:27:58.413Z,980.50
2018-03-22T11:28:58.395Z,980.45
2018-03-22T11:29:58.253Z,980.38
2018-03-22T11:30:58.158Z,980.46
2018-03-22T11:31:58.019Z,980.39
2018-03-22T11:32:58.007Z,980.41
2018-03-22T11:33:57.880Z,980.40
2018-03-22T11:34:57.794Z,980.37
2018-03-22T11:35:57.689Z,980.34
2018-03-22T11:36:57.585Z,980.37
2018-03-22T11:37:57.499Z,980.35
2018-03-22T11:38:57.448Z,980.35
2018-03-22T11:39:57.289Z,980.35
2018-03-22T11:40:57.204Z,980.44
2018-03-22T11:41:57.111Z,980.37
2018-03-22T11:42:57.016Z,980.37
2018-03-22T11:43:56.914Z,980.34
2018-03-22T11:44:56.872Z,980.32
2018-03-22T11:45:56.713Z,980.41
2018-03-22T11:46:56.637Z,980.33
2018-03-22T11:47:56.520Z,980.32
2018-03-22T11:48:56.452Z,980.26
2018-03-22T11:49:56.346Z,980.26
2018-03-22T11:50:56.317Z,980.24
2018-03-22T11:51:56.178Z,980.28
2018-03-22T11:52:56.056Z,980.22
2018-03-22T11:53:55.991Z,980.27
2018-03-22T11:54:55.934Z,980.29
2018-03-22T11:55:55.790Z,980.30
2018-03-22T11:56:55.777Z,980.30
2018-03-22T11:57:55.592Z,980.25
2018-03-22T11:58:55.470Z,980.30
2018-03-22T11:59:55.425Z,980.29
2018-03-22T12:00:55.321Z,980.20
2018-03-22T12:01:55.296Z,980.26
2018-03-22T12:02:55.173Z,980.27
2018-03-22T12:03:55.018Z,980.31
2018-03-22T12:04:54.949Z,980.15
2018-03-22T12:05:54.854Z,980.21
2018-03-22T12:06:54.756Z,980.16
2018-03-22T12:07:54.653Z,980.16
2018-03-22T12:08:54.615Z,980.14
2018-03-22T12:09:54.447Z,980.15
2018-03-22T12:10:54.362Z,980.13
2018-03-22T12:11:54.289Z,980.11
2018-03-22T12:12:54.190Z,980.10
2018-03-22T12:13:54.118Z,980.11
2018-03-22T12:14:54.078Z,980.04
2018-03-22T12:15:53.914Z,980.03
2018-03-22T12:16:53.798Z,980.04
2018-03-22T12:17:53.715Z,980.05
2018-03-22T12:18:53.596Z,980.04
2018-03-22T12:19:53.504Z,980.00
2018-03-22T12:20:53.449Z,979.96
2018-03-22T12:21:53.374Z,980.02
2018-03-22T12:22:53.254Z,980.02
2018-03-22T12:23:53.177Z,980.08
2018-03-22T12:24:53.105Z,980.06
2018-03-22T12:25:52.953Z,980.00
2018-03-22T12:26:52.913Z,980.02